Paphos, Cyprus
Current Conditions -  °F | °C
As of 7:30 PM on Monday 26 Jan 2015 (Local Time) from LCPH Reporting Station
Few Clouds Few Clouds  
Wind Chill: 54°   Ceiling: Unl
Heat Index: 54°   Visibility: 6mi
Dew Point: 45°   Wind: 6mph
Humidity: 72%   Direction: 360°N
Pressure: 30.12"   Gusts: NA
Location:  34.77°N, 32.4°E
Report Text: LCPH 261630Z 36005KT 9999 FEW020 12/07 Q1020
Loading
Personal Weather Stations






























Interactive Weather Map New forecast layout! Learn more

10-Day Weather Forecast

Advertisements
Track Severe Weather on mobile